sensor_id;sensor_type;location;lat;lon;timestamp;P1;durP1;ratioP1;P2;durP2;ratioP2
12129;SDS011;6128;59.340;18.040;2023-07-29T00:01:41;1.90;;;1.00;;
12129;SDS011;6128;59.340;18.040;2023-07-29T00:04:08;1.20;;;0.93;;
12129;SDS011;6128;59.340;18.040;2023-07-29T00:06:36;2.00;;;0.90;;
12129;SDS011;6128;59.340;18.040;2023-07-29T00:09:03;1.20;;;0.97;;
12129;SDS011;6128;59.340;18.040;2023-07-29T00:11:30;1.03;;;0.80;;
12129;SDS011;6128;59.340;18.040;2023-07-29T00:14:00;1.07;;;0.97;;
12129;SDS011;6128;59.340;18.040;2023-07-29T00:16:27;1.83;;;1.00;;
12129;SDS011;6128;59.340;18.040;2023-07-29T00:18:54;1.30;;;0.93;;
12129;SDS011;6128;59.340;18.040;2023-07-29T00:21:21;1.20;;;1.00;;
12129;SDS011;6128;59.340;18.040;2023-07-29T00:23:48;1.23;;;1.00;;
12129;SDS011;6128;59.340;18.040;2023-07-29T00:26:16;0.97;;;0.77;;
12129;SDS011;6128;59.340;18.040;2023-07-29T00:28:43;2.07;;;1.03;;
12129;SDS011;6128;59.340;18.040;2023-07-29T00:31:12;1.93;;;0.90;;
12129;SDS011;6128;59.340;18.040;2023-07-29T00:33:39;0.80;;;0.80;;
12129;SDS011;6128;59.340;18.040;2023-07-29T00:36:06;2.33;;;1.20;;
12129;SDS011;6128;59.340;18.040;2023-07-29T00:38:33;1.00;;;0.70;;
12129;SDS011;6128;59.340;18.040;2023-07-29T00:41:00;1.10;;;1.00;;
12129;SDS011;6128;59.340;18.040;2023-07-29T00:43:30;2.50;;;1.00;;
12129;SDS011;6128;59.340;18.040;2023-07-29T00:45:57;0.90;;;0.90;;
12129;SDS011;6128;59.340;18.040;2023-07-29T00:48:25;5.80;;;1.10;;
12129;SDS011;6128;59.340;18.040;2023-07-29T00:50:53;0.80;;;0.80;;
12129;SDS011;6128;59.340;18.040;2023-07-29T00:53:21;1.63;;;1.00;;
12129;SDS011;6128;59.340;18.040;2023-07-29T00:55:48;1.00;;;0.90;;
12129;SDS011;6128;59.340;18.040;2023-07-29T00:58:15;1.10;;;1.00;;
12129;SDS011;6128;59.340;18.040;2023-07-29T01:00:42;1.50;;;0.93;;
12129;SDS011;6128;59.340;18.040;2023-07-29T01:03:09;1.77;;;1.27;;
12129;SDS011;6128;59.340;18.040;2023-07-29T01:05:39;1.47;;;0.90;;
12129;SDS011;6128;59.340;18.040;2023-07-29T01:08:17;1.10;;;1.00;;
12129;SDS011;6128;59.340;18.040;2023-07-29T01:10:51;1.30;;;1.20;;
12129;SDS011;6128;59.340;18.040;2023-07-29T01:13:26;1.13;;;1.03;;
12129;SDS011;6128;59.340;18.040;2023-07-29T01:16:00;1.40;;;0.93;;
12129;SDS011;6128;59.340;18.040;2023-07-29T01:18:31;1.00;;;0.90;;
12129;SDS011;6128;59.340;18.040;2023-07-29T01:21:04;1.50;;;1.40;;
12129;SDS011;6128;59.340;18.040;2023-07-29T01:23:35;2.57;;;0.87;;
12129;SDS011;6128;59.340;18.040;2023-07-29T01:26:02;1.17;;;1.00;;
12129;SDS011;6128;59.340;18.040;2023-07-29T01:28:30;1.23;;;0.90;;
12129;SDS011;6128;59.340;18.040;2023-07-29T01:31:01;1.13;;;1.00;;
12129;SDS011;6128;59.340;18.040;2023-07-29T01:33:34;2.13;;;1.10;;
12129;SDS011;6128;59.340;18.040;2023-07-29T01:36:06;1.23;;;1.10;;
12129;SDS011;6128;59.340;18.040;2023-07-29T01:38:43;2.50;;;1.07;;
12129;SDS011;6128;59.340;18.040;2023-07-29T01:41:11;1.40;;;1.23;;
12129;SDS011;6128;59.340;18.040;2023-07-29T01:43:39;1.10;;;1.00;;
12129;SDS011;6128;59.340;18.040;2023-07-29T01:46:09;0.93;;;0.90;;
12129;SDS011;6128;59.340;18.040;2023-07-29T01:48:37;2.17;;;0.80;;
12129;SDS011;6128;59.340;18.040;2023-07-29T01:51:04;1.10;;;0.80;;
12129;SDS011;6128;59.340;18.040;2023-07-29T01:53:32;2.77;;;1.07;;
12129;SDS011;6128;59.340;18.040;2023-07-29T01:56:01;3.90;;;1.10;;
12129;SDS011;6128;59.340;18.040;2023-07-29T01:58:29;1.47;;;1.00;;
12129;SDS011;6128;59.340;18.040;2023-07-29T02:00:56;1.70;;;0.97;;
12129;SDS011;6128;59.340;18.040;2023-07-29T02:03:23;1.10;;;0.93;;
12129;SDS011;6128;59.340;18.040;2023-07-29T02:05:50;1.53;;;0.80;;
12129;SDS011;6128;59.340;18.040;2023-07-29T02:08:17;1.93;;;1.20;;
12129;SDS011;6128;59.340;18.040;2023-07-29T02:10:45;0.80;;;0.80;;
12129;SDS011;6128;59.340;18.040;2023-07-29T02:13:15;1.43;;;1.00;;
12129;SDS011;6128;59.340;18.040;2023-07-29T02:15:42;1.10;;;1.00;;
12129;SDS011;6128;59.340;18.040;2023-07-29T02:18:09;0.90;;;0.90;;
12129;SDS011;6128;59.340;18.040;2023-07-29T02:20:36;1.07;;;0.93;;
12129;SDS011;6128;59.340;18.040;2023-07-29T02:23:03;1.23;;;0.90;;
12129;SDS011;6128;59.340;18.040;2023-07-29T02:25:31;0.90;;;0.90;;
12129;SDS011;6128;59.340;18.040;2023-07-29T02:28:01;1.10;;;1.00;;
12129;SDS011;6128;59.340;18.040;2023-07-29T02:30:30;1.97;;;0.90;;
12129;SDS011;6128;59.340;18.040;2023-07-29T02:32:58;1.47;;;1.00;;
12129;SDS011;6128;59.340;18.040;2023-07-29T02:35:26;1.97;;;1.40;;
12129;SDS011;6128;59.340;18.040;2023-07-29T02:37:53;1.20;;;1.07;;
12129;SDS011;6128;59.340;18.040;2023-07-29T02:40:20;1.00;;;1.00;;
12129;SDS011;6128;59.340;18.040;2023-07-29T02:42:48;1.10;;;1.00;;
12129;SDS011;6128;59.340;18.040;2023-07-29T02:45:15;2.60;;;0.90;;
12129;SDS011;6128;59.340;18.040;2023-07-29T02:47:44;2.03;;;1.00;;
12129;SDS011;6128;59.340;18.040;2023-07-29T02:50:11;2.43;;;1.00;;
12129;SDS011;6128;59.340;18.040;2023-07-29T02:52:41;1.00;;;1.00;;
12129;SDS011;6128;59.340;18.040;2023-07-29T02:55:08;1.33;;;1.03;;
12129;SDS011;6128;59.340;18.040;2023-07-29T02:57:35;0.97;;;0.97;;
12129;SDS011;6128;59.340;18.040;2023-07-29T03:00:02;1.13;;;1.00;;
12129;SDS011;6128;59.340;18.040;2023-07-29T03:02:32;1.73;;;1.00;;
12129;SDS011;6128;59.340;18.040;2023-07-29T03:05:00;0.70;;;0.70;;
12129;SDS011;6128;59.340;18.040;2023-07-29T03:07:28;0.80;;;0.80;;
12129;SDS011;6128;59.340;18.040;2023-07-29T03:09:56;0.60;;;0.60;;
12129;SDS011;6128;59.340;18.040;2023-07-29T03:12:23;0.90;;;0.90;;
12129;SDS011;6128;59.340;18.040;2023-07-29T03:14:50;0.70;;;0.67;;
12129;SDS011;6128;59.340;18.040;2023-07-29T03:17:17;0.80;;;0.80;;
12129;SDS011;6128;59.340;18.040;2023-07-29T03:19:44;1.37;;;0.70;;
12129;SDS011;6128;59.340;18.040;2023-07-29T03:22:13;1.53;;;0.77;;
12129;SDS011;6128;59.340;18.040;2023-07-29T03:24:40;0.97;;;0.90;;
12129;SDS011;6128;59.340;18.040;2023-07-29T03:27:07;1.10;;;0.90;;
12129;SDS011;6128;59.340;18.040;2023-07-29T03:29:35;1.90;;;0.93;;
12129;SDS011;6128;59.340;18.040;2023-07-29T03:32:02;0.80;;;0.80;;
12129;SDS011;6128;59.340;18.040;2023-07-29T03:34:29;0.93;;;0.93;;
12129;SDS011;6128;59.340;18.040;2023-07-29T03:36:57;0.77;;;0.70;;
12129;SDS011;6128;59.340;18.040;2023-07-29T03:39:25;2.10;;;0.70;;
12129;SDS011;6128;59.340;18.040;2023-07-29T03:41:53;1.20;;;0.70;;
12129;SDS011;6128;59.340;18.040;2023-07-29T03:44:20;0.70;;;0.70;;
12129;SDS011;6128;59.340;18.040;2023-07-29T03:46:47;1.10;;;0.67;;
12129;SDS011;6128;59.340;18.040;2023-07-29T03:49:14;0.80;;;0.80;;
12129;SDS011;6128;59.340;18.040;2023-07-29T03:51:42;0.80;;;0.73;;
12129;SDS011;6128;59.340;18.040;2023-07-29T03:54:10;0.70;;;0.70;;
12129;SDS011;6128;59.340;18.040;2023-07-29T03:56:38;0.70;;;0.60;;
12129;SDS011;6128;59.340;18.040;2023-07-29T03:59:06;0.57;;;0.57;;
12129;SDS011;6128;59.340;18.040;2023-07-29T04:01:33;1.30;;;0.77;;
12129;SDS011;6128;59.340;18.040;2023-07-29T04:04:00;1.27;;;0.93;;
12129;SDS011;6128;59.340;18.040;2023-07-29T04:06:27;0.97;;;0.70;;
12129;SDS011;6128;59.340;18.040;2023-07-29T04:08:54;0.80;;;0.80;;
12129;SDS011;6128;59.340;18.040;2023-07-29T04:11:22;1.27;;;0.87;;
12129;SDS011;6128;59.340;18.040;2023-07-29T04:13:51;2.23;;;1.10;;
12129;SDS011;6128;59.340;18.040;2023-07-29T04:19:53;0.83;;;0.80;;
12129;SDS011;6128;59.340;18.040;2023-07-29T04:22:20;0.70;;;0.70;;
12129;SDS011;6128;59.340;18.040;2023-07-29T04:24:47;2.10;;;0.80;;
12129;SDS011;6128;59.340;18.040;2023-07-29T04:27:15;0.80;;;0.73;;
12129;SDS011;6128;59.340;18.040;2023-07-29T04:29:43;0.73;;;0.73;;
12129;SDS011;6128;59.340;18.040;2023-07-29T04:32:10;1.33;;;1.00;;
12129;SDS011;6128;59.340;18.040;2023-07-29T04:34:37;1.20;;;0.70;;
12129;SDS011;6128;59.340;18.040;2023-07-29T04:37:05;1.40;;;0.60;;
12129;SDS011;6128;59.340;18.040;2023-07-29T04:39:32;1.53;;;0.67;;
12129;SDS011;6128;59.340;18.040;2023-07-29T04:41:59;1.10;;;0.83;;
12129;SDS011;6128;59.340;18.040;2023-07-29T04:44:27;1.30;;;0.70;;
12129;SDS011;6128;59.340;18.040;2023-07-29T04:46:55;1.13;;;0.70;;
12129;SDS011;6128;59.340;18.040;2023-07-29T04:49:22;0.83;;;0.83;;
12129;SDS011;6128;59.340;18.040;2023-07-29T04:51:50;0.60;;;0.60;;
12129;SDS011;6128;59.340;18.040;2023-07-29T04:54:17;1.03;;;0.90;;
12129;SDS011;6128;59.340;18.040;2023-07-29T04:56:45;0.80;;;0.80;;
12129;SDS011;6128;59.340;18.040;2023-07-29T04:59:12;1.00;;;0.80;;
12129;SDS011;6128;59.340;18.040;2023-07-29T05:01:40;1.33;;;0.83;;
12129;SDS011;6128;59.340;18.040;2023-07-29T05:04:09;0.70;;;0.70;;
12129;SDS011;6128;59.340;18.040;2023-07-29T05:06:36;2.03;;;1.13;;
12129;SDS011;6128;59.340;18.040;2023-07-29T05:09:12;0.80;;;0.80;;
12129;SDS011;6128;59.340;18.040;2023-07-29T05:11:39;1.37;;;0.70;;
12129;SDS011;6128;59.340;18.040;2023-07-29T05:14:06;1.23;;;0.90;;
12129;SDS011;6128;59.340;18.040;2023-07-29T05:16:34;1.57;;;1.00;;
12129;SDS011;6128;59.340;18.040;2023-07-29T05:19:01;0.90;;;0.80;;
12129;SDS011;6128;59.340;18.040;2023-07-29T05:21:30;1.20;;;0.80;;
12129;SDS011;6128;59.340;18.040;2023-07-29T05:23:57;0.80;;;0.80;;
12129;SDS011;6128;59.340;18.040;2023-07-29T05:26:24;0.80;;;0.80;;
12129;SDS011;6128;59.340;18.040;2023-07-29T05:28:51;0.80;;;0.80;;
12129;SDS011;6128;59.340;18.040;2023-07-29T05:31:19;1.23;;;0.80;;
12129;SDS011;6128;59.340;18.040;2023-07-29T05:33:46;2.00;;;0.73;;
12129;SDS011;6128;59.340;18.040;2023-07-29T05:36:13;1.33;;;0.97;;
12129;SDS011;6128;59.340;18.040;2023-07-29T05:38:42;0.70;;;0.70;;
12129;SDS011;6128;59.340;18.040;2023-07-29T05:41:09;0.83;;;0.83;;
12129;SDS011;6128;59.340;18.040;2023-07-29T05:43:36;2.77;;;0.73;;
12129;SDS011;6128;59.340;18.040;2023-07-29T05:46:03;0.77;;;0.63;;
12129;SDS011;6128;59.340;18.040;2023-07-29T05:48:31;1.00;;;0.90;;
12129;SDS011;6128;59.340;18.040;2023-07-29T05:50:58;0.70;;;0.70;;
12129;SDS011;6128;59.340;18.040;2023-07-29T05:53:25;1.80;;;0.80;;
12129;SDS011;6128;59.340;18.040;2023-07-29T05:55:54;0.70;;;0.70;;
12129;SDS011;6128;59.340;18.040;2023-07-29T05:58:21;1.07;;;0.80;;
12129;SDS011;6128;59.340;18.040;2023-07-29T06:00:48;0.70;;;0.67;;
12129;SDS011;6128;59.340;18.040;2023-07-29T06:03:16;0.60;;;0.50;;
12129;SDS011;6128;59.340;18.040;2023-07-29T06:05:43;0.97;;;0.80;;
12129;SDS011;6128;59.340;18.040;2023-07-29T06:08:10;0.70;;;0.70;;
12129;SDS011;6128;59.340;18.040;2023-07-29T06:10:37;1.60;;;0.90;;
12129;SDS011;6128;59.340;18.040;2023-07-29T06:13:05;2.40;;;0.70;;
12129;SDS011;6128;59.340;18.040;2023-07-29T06:15:33;1.90;;;0.40;;
12129;SDS011;6128;59.340;18.040;2023-07-29T06:18:00;0.40;;;0.40;;
12129;SDS011;6128;59.340;18.040;2023-07-29T06:20:28;0.57;;;0.57;;
12129;SDS011;6128;59.340;18.040;2023-07-29T06:22:55;0.40;;;0.40;;
12129;SDS011;6128;59.340;18.040;2023-07-29T06:25:22;0.88;;;0.30;;
12129;SDS011;6128;59.340;18.040;2023-07-29T06:27:49;0.68;;;0.40;;
12129;SDS011;6128;59.340;18.040;2023-07-29T06:30:18;1.70;;;0.40;;
12129;SDS011;6128;59.340;18.040;2023-07-29T06:32:45;2.08;;;0.60;;
12129;SDS011;6128;59.340;18.040;2023-07-29T06:35:12;0.38;;;0.38;;
12129;SDS011;6128;59.340;18.040;2023-07-29T06:37:39;0.60;;;0.60;;
12129;SDS011;6128;59.340;18.040;2023-07-29T06:40:07;0.75;;;0.52;;
12129;SDS011;6128;59.340;18.040;2023-07-29T06:42:34;1.27;;;0.68;;
12129;SDS011;6128;59.340;18.040;2023-07-29T06:45:02;0.45;;;0.40;;
12129;SDS011;6128;59.340;18.040;2023-07-29T06:47:32;0.88;;;0.50;;
12129;SDS011;6128;59.340;18.040;2023-07-29T06:49:59;2.08;;;0.50;;
12129;SDS011;6128;59.340;18.040;2023-07-29T06:52:26;0.20;;;0.20;;
12129;SDS011;6128;59.340;18.040;2023-07-29T06:54:54;1.10;;;0.50;;
12129;SDS011;6128;59.340;18.040;2023-07-29T06:57:21;1.85;;;0.52;;
12129;SDS011;6128;59.340;18.040;2023-07-29T06:59:48;0.40;;;0.40;;
12129;SDS011;6128;59.340;18.040;2023-07-29T07:02:15;0.60;;;0.40;;
12129;SDS011;6128;59.340;18.040;2023-07-29T07:04:44;0.55;;;0.45;;
12129;SDS011;6128;59.340;18.040;2023-07-29T07:07:11;0.47;;;0.40;;
12129;SDS011;6128;59.340;18.040;2023-07-29T07:09:38;0.60;;;0.30;;
12129;SDS011;6128;59.340;18.040;2023-07-29T07:12:06;0.45;;;0.30;;
12129;SDS011;6128;59.340;18.040;2023-07-29T07:14:34;0.70;;;0.30;;
12129;SDS011;6128;59.340;18.040;2023-07-29T07:17:01;1.38;;;0.50;;
12129;SDS011;6128;59.340;18.040;2023-07-29T07:19:28;0.90;;;0.32;;
12129;SDS011;6128;59.340;18.040;2023-07-29T07:21:57;2.00;;;0.55;;
12129;SDS011;6128;59.340;18.040;2023-07-29T07:24:24;1.80;;;0.40;;
12129;SDS011;6128;59.340;18.040;2023-07-29T07:26:51;0.55;;;0.30;;
12129;SDS011;6128;59.340;18.040;2023-07-29T07:29:18;0.75;;;0.32;;
12129;SDS011;6128;59.340;18.040;2023-07-29T07:31:49;0.73;;;0.50;;
12129;SDS011;6128;59.340;18.040;2023-07-29T07:34:18;0.82;;;0.50;;
12129;SDS011;6128;59.340;18.040;2023-07-29T07:36:47;1.92;;;0.50;;
12129;SDS011;6128;59.340;18.040;2023-07-29T07:39:15;1.63;;;0.32;;
12129;SDS011;6128;59.340;18.040;2023-07-29T07:41:42;0.88;;;0.50;;
12129;SDS011;6128;59.340;18.040;2023-07-29T07:44:10;0.30;;;0.30;;
12129;SDS011;6128;59.340;18.040;2023-07-29T07:46:40;0.82;;;0.40;;
12129;SDS011;6128;59.340;18.040;2023-07-29T07:49:07;1.00;;;0.75;;
12129;SDS011;6128;59.340;18.040;2023-07-29T07:51:35;0.50;;;0.50;;
12129;SDS011;6128;59.340;18.040;2023-07-29T07:54:02;0.40;;;0.40;;
12129;SDS011;6128;59.340;18.040;2023-07-29T07:56:30;0.60;;;0.40;;
12129;SDS011;6128;59.340;18.040;2023-07-29T07:58:58;0.50;;;0.40;;
12129;SDS011;6128;59.340;18.040;2023-07-29T08:01:25;1.75;;;0.60;;
12129;SDS011;6128;59.340;18.040;2023-07-29T08:03:52;0.50;;;0.50;;
12129;SDS011;6128;59.340;18.040;2023-07-29T08:06:19;1.23;;;0.70;;
12129;SDS011;6128;59.340;18.040;2023-07-29T08:08:47;0.55;;;0.50;;
12129;SDS011;6128;59.340;18.040;2023-07-29T08:11:15;1.05;;;0.40;;
12129;SDS011;6128;59.340;18.040;2023-07-29T08:13:43;0.73;;;0.60;;
12129;SDS011;6128;59.340;18.040;2023-07-29T08:16:12;2.45;;;0.47;;
12129;SDS011;6128;59.340;18.040;2023-07-29T08:18:39;0.45;;;0.45;;
12129;SDS011;6128;59.340;18.040;2023-07-29T08:21:06;0.65;;;0.57;;
12129;SDS011;6128;59.340;18.040;2023-07-29T08:23:34;0.75;;;0.50;;
12129;SDS011;6128;59.340;18.040;2023-07-29T08:26:02;1.30;;;0.50;;
12129;SDS011;6128;59.340;18.040;2023-07-29T08:28:31;0.68;;;0.68;;
12129;SDS011;6128;59.340;18.040;2023-07-29T08:31:01;1.58;;;0.77;;
12129;SDS011;6128;59.340;18.040;2023-07-29T08:33:28;0.52;;;0.35;;
12129;SDS011;6128;59.340;18.040;2023-07-29T08:35:56;0.60;;;0.60;;
12129;SDS011;6128;59.340;18.040;2023-07-29T08:38:24;1.52;;;0.90;;
12129;SDS011;6128;59.340;18.040;2023-07-29T08:43:38;0.50;;;0.40;;
12129;SDS011;6128;59.340;18.040;2023-07-29T08:46:11;0.50;;;0.50;;
12129;SDS011;6128;59.340;18.040;2023-07-29T08:48:40;0.80;;;0.60;;
12129;SDS011;6128;59.340;18.040;2023-07-29T08:51:07;1.10;;;0.52;;
12129;SDS011;6128;59.340;18.040;2023-07-29T08:53:35;1.20;;;0.45;;
12129;SDS011;6128;59.340;18.040;2023-07-29T08:56:03;0.68;;;0.50;;
12129;SDS011;6128;59.340;18.040;2023-07-29T08:58:31;0.65;;;0.50;;
12129;SDS011;6128;59.340;18.040;2023-07-29T09:00:59;0.73;;;0.43;;
12129;SDS011;6128;59.340;18.040;2023-07-29T09:03:29;0.50;;;0.50;;
12129;SDS011;6128;59.340;18.040;2023-07-29T09:05:56;1.10;;;0.75;;
12129;SDS011;6128;59.340;18.040;2023-07-29T09:08:25;0.35;;;0.35;;
12129;SDS011;6128;59.340;18.040;2023-07-29T09:10:53;2.05;;;0.60;;
12129;SDS011;6128;59.340;18.040;2023-07-29T09:13:20;0.40;;;0.40;;
12129;SDS011;6128;59.340;18.040;2023-07-29T09:15:48;1.55;;;0.50;;
12129;SDS011;6128;59.340;18.040;2023-07-29T09:18:15;1.10;;;0.55;;
12129;SDS011;6128;59.340;18.040;2023-07-29T09:20:47;1.45;;;0.60;;
12129;SDS011;6128;59.340;18.040;2023-07-29T09:23:15;0.40;;;0.40;;
12129;SDS011;6128;59.340;18.040;2023-07-29T09:25:42;0.35;;;0.32;;
12129;SDS011;6128;59.340;18.040;2023-07-29T09:28:12;1.15;;;0.30;;
12129;SDS011;6128;59.340;18.040;2023-07-29T09:30:42;1.25;;;0.43;;
12129;SDS011;6128;59.340;18.040;2023-07-29T09:33:11;1.55;;;0.43;;
12129;SDS011;6128;59.340;18.040;2023-07-29T09:35:39;1.95;;;0.40;;
12129;SDS011;6128;59.340;18.040;2023-07-29T09:38:07;0.50;;;0.47;;
12129;SDS011;6128;59.340;18.040;2023-07-29T09:40:35;0.60;;;0.57;;
12129;SDS011;6128;59.340;18.040;2023-07-29T09:43:03;0.55;;;0.40;;
12129;SDS011;6128;59.340;18.040;2023-07-29T09:45:32;1.45;;;0.57;;
12129;SDS011;6128;59.340;18.040;2023-07-29T09:48:00;2.17;;;0.52;;
12129;SDS011;6128;59.340;18.040;2023-07-29T09:50:30;1.50;;;0.60;;
12129;SDS011;6128;59.340;18.040;2023-07-29T09:52:57;0.65;;;0.45;;
12129;SDS011;6128;59.340;18.040;2023-07-29T09:55:26;0.50;;;0.45;;
12129;SDS011;6128;59.340;18.040;2023-07-29T09:57:54;0.60;;;0.43;;
12129;SDS011;6128;59.340;18.040;2023-07-29T10:00:23;2.03;;;0.70;;
12129;SDS011;6128;59.340;18.040;2023-07-29T10:02:50;1.23;;;0.70;;
12129;SDS011;6128;59.340;18.040;2023-07-29T10:05:18;0.30;;;0.30;;
12129;SDS011;6128;59.340;18.040;2023-07-29T10:07:47;1.02;;;0.60;;
12129;SDS011;6128;59.340;18.040;2023-07-29T10:10:15;0.43;;;0.43;;
12129;SDS011;6128;59.340;18.040;2023-07-29T10:12:45;0.45;;;0.40;;
12129;SDS011;6128;59.340;18.040;2023-07-29T10:15:13;1.75;;;0.55;;
12129;SDS011;6128;59.340;18.040;2023-07-29T10:17:40;0.45;;;0.45;;
12129;SDS011;6128;59.340;18.040;2023-07-29T10:20:08;0.95;;;0.70;;
12129;SDS011;6128;59.340;18.040;2023-07-29T10:22:37;2.30;;;0.50;;
12129;SDS011;6128;59.340;18.040;2023-07-29T10:25:07;0.98;;;0.50;;
12129;SDS011;6128;59.340;18.040;2023-07-29T10:27:39;0.82;;;0.63;;
12129;SDS011;6128;59.340;18.040;2023-07-29T10:30:12;0.63;;;0.50;;
12129;SDS011;6128;59.340;18.040;2023-07-29T10:32:41;2.53;;;0.65;;
12129;SDS011;6128;59.340;18.040;2023-07-29T10:35:09;1.48;;;0.40;;
12129;SDS011;6128;59.340;18.040;2023-07-29T10:37:37;3.58;;;1.00;;
12129;SDS011;6128;59.340;18.040;2023-07-29T10:40:06;2.65;;;0.65;;
12129;SDS011;6128;59.340;18.040;2023-07-29T10:42:34;1.58;;;0.73;;
12129;SDS011;6128;59.340;18.040;2023-07-29T10:45:16;2.20;;;0.50;;
12129;SDS011;6128;59.340;18.040;2023-07-29T10:47:45;0.60;;;0.47;;
12129;SDS011;6128;59.340;18.040;2023-07-29T10:50:16;1.23;;;0.93;;
12129;SDS011;6128;59.340;18.040;2023-07-29T10:52:46;0.93;;;0.60;;
12129;SDS011;6128;59.340;18.040;2023-07-29T10:55:28;0.73;;;0.50;;
12129;SDS011;6128;59.340;18.040;2023-07-29T10:58:07;0.40;;;0.40;;
12129;SDS011;6128;59.340;18.040;2023-07-29T11:00:37;0.40;;;0.38;;
12129;SDS011;6128;59.340;18.040;2023-07-29T11:03:05;0.75;;;0.30;;
12129;SDS011;6128;59.340;18.040;2023-07-29T11:05:43;2.47;;;0.50;;
12129;SDS011;6128;59.340;18.040;2023-07-29T11:08:22;0.60;;;0.50;;
12129;SDS011;6128;59.340;18.040;2023-07-29T11:11:03;0.70;;;0.50;;
12129;SDS011;6128;59.340;18.040;2023-07-29T11:13:31;0.80;;;0.63;;
12129;SDS011;6128;59.340;18.040;2023-07-29T11:16:01;1.65;;;0.52;;
12129;SDS011;6128;59.340;18.040;2023-07-29T11:18:29;1.60;;;0.50;;
12129;SDS011;6128;59.340;18.040;2023-07-29T11:20:57;1.80;;;0.50;;
12129;SDS011;6128;59.340;18.040;2023-07-29T11:23:28;0.32;;;0.32;;
12129;SDS011;6128;59.340;18.040;2023-07-29T11:25:56;0.70;;;0.35;;
12129;SDS011;6128;59.340;18.040;2023-07-29T11:28:24;1.00;;;0.57;;
12129;SDS011;6128;59.340;18.040;2023-07-29T11:30:52;0.82;;;0.55;;
12129;SDS011;6128;59.340;18.040;2023-07-29T11:33:23;0.30;;;0.30;;
12129;SDS011;6128;59.340;18.040;2023-07-29T11:35:53;1.23;;;0.52;;
12129;SDS011;6128;59.340;18.040;2023-07-29T11:38:21;0.50;;;0.40;;
12129;SDS011;6128;59.340;18.040;2023-07-29T11:40:55;1.02;;;0.55;;
12129;SDS011;6128;59.340;18.040;2023-07-29T11:43:23;0.75;;;0.40;;
12129;SDS011;6128;59.340;18.040;2023-07-29T11:45:51;1.13;;;0.60;;
12129;SDS011;6128;59.340;18.040;2023-07-29T11:48:27;1.35;;;0.40;;
12129;SDS011;6128;59.340;18.040;2023-07-29T11:50:54;0.68;;;0.43;;
12129;SDS011;6128;59.340;18.040;2023-07-29T11:53:22;1.40;;;0.47;;
12129;SDS011;6128;59.340;18.040;2023-07-29T11:55:52;0.98;;;0.80;;
12129;SDS011;6128;59.340;18.040;2023-07-29T11:58:21;1.05;;;0.70;;
12129;SDS011;6128;59.340;18.040;2023-07-29T12:00:48;1.98;;;0.70;;
12129;SDS011;6128;59.340;18.040;2023-07-29T12:03:16;3.72;;;0.55;;
12129;SDS011;6128;59.340;18.040;2023-07-29T12:05:45;2.58;;;0.82;;
12129;SDS011;6128;59.340;18.040;2023-07-29T12:08:12;0.60;;;0.50;;
12129;SDS011;6128;59.340;18.040;2023-07-29T12:10:40;0.70;;;0.70;;
12129;SDS011;6128;59.340;18.040;2023-07-29T12:13:07;1.42;;;0.65;;
12129;SDS011;6128;59.340;18.040;2023-07-29T12:15:37;0.80;;;0.50;;
12129;SDS011;6128;59.340;18.040;2023-07-29T12:18:04;0.70;;;0.52;;
12129;SDS011;6128;59.340;18.040;2023-07-29T12:20:33;0.82;;;0.40;;
12129;SDS011;6128;59.340;18.040;2023-07-29T12:23:02;0.30;;;0.30;;
12129;SDS011;6128;59.340;18.040;2023-07-29T12:25:30;1.00;;;0.68;;
12129;SDS011;6128;59.340;18.040;2023-07-29T12:28:02;0.60;;;0.60;;
12129;SDS011;6128;59.340;18.040;2023-07-29T12:30:30;1.02;;;0.50;;
12129;SDS011;6128;59.340;18.040;2023-07-29T12:32:57;0.40;;;0.40;;
12129;SDS011;6128;59.340;18.040;2023-07-29T12:35:33;0.50;;;0.40;;
12129;SDS011;6128;59.340;18.040;2023-07-29T12:38:03;0.77;;;0.50;;
12129;SDS011;6128;59.340;18.040;2023-07-29T12:40:30;1.60;;;0.45;;
12129;SDS011;6128;59.340;18.040;2023-07-29T12:42:58;0.80;;;0.80;;
12129;SDS011;6128;59.340;18.040;2023-07-29T12:45:25;0.55;;;0.50;;
12129;SDS011;6128;59.340;18.040;2023-07-29T12:47:53;1.13;;;0.63;;
12129;SDS011;6128;59.340;18.040;2023-07-29T12:50:22;0.68;;;0.40;;
12129;SDS011;6128;59.340;18.040;2023-07-29T12:52:49;0.70;;;0.60;;
12129;SDS011;6128;59.340;18.040;2023-07-29T12:55:18;1.23;;;0.60;;
12129;SDS011;6128;59.340;18.040;2023-07-29T12:57:45;0.70;;;0.70;;
12129;SDS011;6128;59.340;18.040;2023-07-29T13:00:12;1.67;;;0.47;;
12129;SDS011;6128;59.340;18.040;2023-07-29T13:02:40;1.08;;;0.40;;
12129;SDS011;6128;59.340;18.040;2023-07-29T13:05:08;2.20;;;0.80;;
12129;SDS011;6128;59.340;18.040;2023-07-29T13:07:37;1.02;;;0.40;;
12129;SDS011;6128;59.340;18.040;2023-07-29T13:10:05;0.60;;;0.30;;
12129;SDS011;6128;59.340;18.040;2023-07-29T13:12:34;0.82;;;0.50;;
12129;SDS011;6128;59.340;18.040;2023-07-29T13:15:01;0.68;;;0.50;;
12129;SDS011;6128;59.340;18.040;2023-07-29T13:17:28;0.30;;;0.30;;
12129;SDS011;6128;59.340;18.040;2023-07-29T13:19:55;2.05;;;0.50;;
12129;SDS011;6128;59.340;18.040;2023-07-29T13:22:23;0.75;;;0.40;;
12129;SDS011;6128;59.340;18.040;2023-07-29T13:24:50;0.55;;;0.52;;
12129;SDS011;6128;59.340;18.040;2023-07-29T13:27:17;1.05;;;0.47;;
12129;SDS011;6128;59.340;18.040;2023-07-29T13:29:46;0.73;;;0.60;;
12129;SDS011;6128;59.340;18.040;2023-07-29T13:32:13;1.08;;;0.68;;
12129;SDS011;6128;59.340;18.040;2023-07-29T13:34:40;0.93;;;0.40;;
12129;SDS011;6128;59.340;18.040;2023-07-29T13:37:07;0.63;;;0.60;;
12129;SDS011;6128;59.340;18.040;2023-07-29T13:39:34;0.75;;;0.55;;
12129;SDS011;6128;59.340;18.040;2023-07-29T13:42:01;1.13;;;0.68;;
12129;SDS011;6128;59.340;18.040;2023-07-29T13:44:29;1.00;;;0.50;;
12129;SDS011;6128;59.340;18.040;2023-07-29T13:46:58;1.83;;;0.45;;
12129;SDS011;6128;59.340;18.040;2023-07-29T13:49:25;0.40;;;0.40;;
12129;SDS011;6128;59.340;18.040;2023-07-29T13:51:52;0.80;;;0.65;;
12129;SDS011;6128;59.340;18.040;2023-07-29T13:54:19;1.65;;;0.60;;
12129;SDS011;6128;59.340;18.040;2023-07-29T13:56:46;1.02;;;0.63;;
12129;SDS011;6128;59.340;18.040;2023-07-29T13:59:14;1.48;;;0.38;;
12129;SDS011;6128;59.340;18.040;2023-07-29T14:01:41;0.75;;;0.50;;
12129;SDS011;6128;59.340;18.040;2023-07-29T14:04:09;0.88;;;0.50;;
12129;SDS011;6128;59.340;18.040;2023-07-29T14:06:37;0.60;;;0.57;;
12129;SDS011;6128;59.340;18.040;2023-07-29T14:09:04;1.73;;;0.60;;
12129;SDS011;6128;59.340;18.040;2023-07-29T14:11:31;1.10;;;0.60;;
12129;SDS011;6128;59.340;18.040;2023-07-29T14:13:58;1.23;;;0.60;;
12129;SDS011;6128;59.340;18.040;2023-07-29T14:16:25;0.40;;;0.40;;
12129;SDS011;6128;59.340;18.040;2023-07-29T14:18:52;2.95;;;0.60;;
12129;SDS011;6128;59.340;18.040;2023-07-29T14:21:21;0.95;;;0.68;;
12129;SDS011;6128;59.340;18.040;2023-07-29T14:23:48;1.17;;;0.40;;
12129;SDS011;6128;59.340;18.040;2023-07-29T14:26:15;1.20;;;0.70;;
12129;SDS011;6128;59.340;18.040;2023-07-29T14:28:42;0.93;;;0.63;;
12129;SDS011;6128;59.340;18.040;2023-07-29T14:31:09;0.60;;;0.60;;
12129;SDS011;6128;59.340;18.040;2023-07-29T14:33:36;0.75;;;0.70;;
12129;SDS011;6128;59.340;18.040;2023-07-29T14:36:04;0.77;;;0.60;;
12129;SDS011;6128;59.340;18.040;2023-07-29T14:38:34;0.80;;;0.70;;
12129;SDS011;6128;59.340;18.040;2023-07-29T14:41:01;1.40;;;0.73;;
12129;SDS011;6128;59.340;18.040;2023-07-29T14:43:29;1.48;;;0.60;;
12129;SDS011;6128;59.340;18.040;2023-07-29T14:45:56;0.93;;;0.70;;
12129;SDS011;6128;59.340;18.040;2023-07-29T14:48:23;0.68;;;0.68;;
12129;SDS011;6128;59.340;18.040;2023-07-29T14:50:51;1.05;;;0.60;;
12129;SDS011;6128;59.340;18.040;2023-07-29T14:53:18;0.60;;;0.60;;
12129;SDS011;6128;59.340;18.040;2023-07-29T14:55:46;0.82;;;0.65;;
12129;SDS011;6128;59.340;18.040;2023-07-29T14:58:14;1.52;;;0.60;;
12129;SDS011;6128;59.340;18.040;2023-07-29T15:00:41;0.57;;;0.57;;